createdAt,value
2023-04-27T00:01:39.013Z,4.46
2023-04-27T00:04:07.100Z,4.38
2023-04-27T00:06:34.714Z,4.32
2023-04-27T00:09:01.509Z,4.26
2023-04-27T00:11:28.298Z,4.21
2023-04-27T00:13:55.065Z,4.26
2023-04-27T00:16:21.832Z,4.32
2023-04-27T00:18:49.122Z,4.43
2023-04-27T00:21:15.907Z,4.23
2023-04-27T00:23:42.625Z,4.15
2023-04-27T00:26:09.395Z,4.13
2023-04-27T00:28:36.188Z,4.01
2023-04-27T00:31:04.230Z,4.02
2023-04-27T00:33:31.226Z,3.93
2023-04-27T00:36:01.948Z,3.98
2023-04-27T00:38:29.800Z,4.05
2023-04-27T00:41:07.575Z,4.01
2023-04-27T00:43:42.846Z,3.99
2023-04-27T00:46:10.428Z,4.06
2023-04-27T00:48:38.006Z,4.06
2023-04-27T00:51:05.780Z,4.08
2023-04-27T00:53:33.433Z,4.33
2023-04-27T00:56:00.205Z,4.12
2023-04-27T00:58:27.222Z,4.15
2023-04-27T01:00:54.315Z,4.11
2023-04-27T01:03:21.510Z,3.98
2023-04-27T01:05:48.405Z,4.01
2023-04-27T01:08:15.214Z,3.95
2023-04-27T01:10:42.440Z,3.93
2023-04-27T01:13:09.933Z,3.89
2023-04-27T01:15:36.955Z,3.86
2023-04-27T01:18:04.716Z,3.92
2023-04-27T01:20:32.616Z,3.96
2023-04-27T01:22:59.881Z,3.95
2023-04-27T01:25:27.105Z,3.92
2023-04-27T01:27:56.857Z,3.92
2023-04-27T01:30:23.670Z,3.78
2023-04-27T01:32:50.693Z,3.88
2023-04-27T01:35:17.724Z,3.82
2023-04-27T01:37:44.610Z,3.83
2023-04-27T01:40:11.959Z,3.78
2023-04-27T01:42:38.982Z,3.69
2023-04-27T01:45:06.400Z,3.73
2023-04-27T01:47:33.250Z,3.72
2023-04-27T01:50:00.054Z,3.78
2023-04-27T01:52:27.631Z,3.79
2023-04-27T01:54:54.545Z,3.86
2023-04-27T01:57:21.530Z,3.68
2023-04-27T01:59:48.300Z,3.67
2023-04-27T02:02:15.047Z,3.55
2023-04-27T02:04:43.725Z,3.57
2023-04-27T02:07:11.214Z,3.55
2023-04-27T02:09:38.344Z,3.53
2023-04-27T02:12:05.522Z,3.58
2023-04-27T02:14:32.395Z,3.61
2023-04-27T02:16:59.125Z,3.55
2023-04-27T02:19:25.981Z,3.65
2023-04-27T02:21:52.846Z,3.57
2023-04-27T02:24:19.602Z,3.71
2023-04-27T02:26:46.510Z,3.61
2023-04-27T02:29:13.622Z,3.51
2023-04-27T02:31:41.419Z,3.60
2023-04-27T02:34:08.195Z,3.61
2023-04-27T02:36:35.027Z,3.65
2023-04-27T02:39:01.854Z,3.61
2023-04-27T02:41:32.233Z,3.57
2023-04-27T02:43:59.081Z,3.54
2023-04-27T02:46:27.399Z,3.45
2023-04-27T02:48:55.374Z,3.38
2023-04-27T02:51:22.273Z,3.31
2023-04-27T02:53:49.102Z,3.37
2023-04-27T02:56:16.121Z,3.41
2023-04-27T02:58:43.319Z,3.35
2023-04-27T03:01:10.143Z,3.32
2023-04-27T03:03:37.241Z,3.23
2023-04-27T03:06:04.231Z,3.32
2023-04-27T03:08:30.982Z,3.24
2023-04-27T03:10:57.811Z,3.24
2023-04-27T03:13:24.538Z,3.22
2023-04-27T03:15:51.429Z,3.18
2023-04-27T03:18:18.222Z,3.24
2023-04-27T03:20:44.990Z,3.28
2023-04-27T03:23:12.338Z,3.23
2023-04-27T03:25:39.159Z,3.18
2023-04-27T03:28:05.895Z,3.15
2023-04-27T03:30:32.681Z,3.02
2023-04-27T03:32:59.642Z,3.09
2023-04-27T03:35:26.480Z,3.23
2023-04-27T03:37:53.300Z,3.21
2023-04-27T03:40:20.110Z,3.27
2023-04-27T03:42:46.841Z,3.34
2023-04-27T03:45:13.745Z,3.21
2023-04-27T03:47:40.752Z,3.19
2023-04-27T03:50:07.816Z,3.12
2023-04-27T03:52:34.593Z,3.02
2023-04-27T03:55:01.386Z,2.92
2023-04-27T03:57:28.096Z,2.97
2023-04-27T03:59:54.951Z,2.91
2023-04-27T04:02:22.409Z,2.87
2023-04-27T04:04:49.437Z,2.85
2023-04-27T04:07:16.269Z,2.79
2023-04-27T04:09:44.678Z,2.90
2023-04-27T04:12:11.439Z,2.99
2023-04-27T04:14:38.344Z,3.12
2023-04-27T04:17:05.097Z,3.08
2023-04-27T04:19:32.015Z,3.08
2023-04-27T04:21:58.908Z,3.16
2023-04-27T04:24:25.680Z,3.15
2023-04-27T04:26:52.718Z,3.15
2023-04-27T04:29:19.630Z,3.06
2023-04-27T04:31:46.664Z,3.01
2023-04-27T04:34:14.748Z,3.04
2023-04-27T04:36:42.048Z,3.20
2023-04-27T04:39:08.970Z,3.23
2023-04-27T04:41:35.762Z,3.36
2023-04-27T04:44:03.594Z,3.52
2023-04-27T04:46:31.007Z,3.47
2023-04-27T04:48:57.795Z,3.50
2023-04-27T04:51:24.543Z,3.58
2023-04-27T04:53:51.376Z,3.66
2023-04-27T04:56:18.204Z,3.69
2023-04-27T04:58:44.987Z,3.76
2023-04-27T05:01:11.970Z,3.70
2023-04-27T05:03:38.913Z,3.85
2023-04-27T05:06:06.196Z,3.95
2023-04-27T05:08:33.016Z,3.84
2023-04-27T05:10:59.748Z,3.95
2023-04-27T05:13:27.159Z,3.90
2023-04-27T05:15:54.683Z,3.92
2023-04-27T05:18:21.455Z,4.13
2023-04-27T05:20:48.210Z,4.06
2023-04-27T05:23:14.980Z,4.06
2023-04-27T05:25:42.067Z,4.17
2023-04-27T05:28:10.271Z,4.06
2023-04-27T05:30:37.789Z,4.47
2023-04-27T05:33:04.942Z,4.39
2023-04-27T05:35:32.846Z,4.18
2023-04-27T05:38:00.214Z,4.37
2023-04-27T05:40:27.256Z,4.50
2023-04-27T05:42:54.220Z,4.63
2023-04-27T05:45:22.021Z,4.71
2023-04-27T05:47:48.996Z,4.87
2023-04-27T05:50:16.065Z,4.89
2023-04-27T05:52:42.800Z,5.09
2023-04-27T05:55:09.821Z,5.13
2023-04-27T05:57:36.592Z,4.92
2023-04-27T06:00:09.285Z,5.16
2023-04-27T06:02:36.236Z,5.48
2023-04-27T06:05:04.051Z,5.53
2023-04-27T06:07:30.880Z,5.81
2023-04-27T06:09:57.737Z,6.23
2023-04-27T06:12:24.458Z,6.14
2023-04-27T06:14:51.608Z,6.29
2023-04-27T06:17:18.379Z,6.17
2023-04-27T06:19:45.148Z,6.45
2023-04-27T06:22:11.903Z,6.89
2023-04-27T06:24:38.805Z,6.75
2023-04-27T06:27:06.756Z,6.84
2023-04-27T06:29:33.574Z,7.13
2023-04-27T06:32:00.462Z,7.20
2023-04-27T06:34:27.398Z,6.82
2023-04-27T06:36:54.187Z,6.48
2023-04-27T06:39:21.085Z,6.73
2023-04-27T06:41:47.850Z,6.63
2023-04-27T06:44:14.600Z,7.04
2023-04-27T06:46:41.416Z,6.88
2023-04-27T06:49:08.184Z,6.94
2023-04-27T06:51:34.996Z,7.07
2023-04-27T06:54:01.760Z,7.41
2023-04-27T06:56:28.582Z,7.26
2023-04-27T06:58:55.375Z,7.69
2023-04-27T07:01:22.155Z,7.44
2023-04-27T07:03:49.227Z,7.37
2023-04-27T07:06:16.428Z,8.17
2023-04-27T07:08:43.390Z,8.18
2023-04-27T07:11:10.179Z,7.90
2023-04-27T07:13:36.999Z,8.39
2023-04-27T07:16:03.990Z,8.23
2023-04-27T07:18:30.764Z,8.02
2023-04-27T07:20:58.280Z,8.31
2023-04-27T07:23:25.003Z,8.34
2023-04-27T07:25:52.170Z,8.66
2023-04-27T07:28:19.058Z,8.83
2023-04-27T07:30:45.976Z,8.86
2023-04-27T07:33:13.405Z,9.07
2023-04-27T07:35:40.157Z,8.76
2023-04-27T07:38:07.757Z,9.20
2023-04-27T07:40:34.939Z,9.96
2023-04-27T07:43:01.698Z,9.77
2023-04-27T07:45:32.094Z,10.05
2023-04-27T07:48:00.689Z,9.86
2023-04-27T07:50:30.213Z,9.80
2023-04-27T07:52:57.545Z,10.31
2023-04-27T07:55:25.302Z,10.56
2023-04-27T07:57:57.068Z,10.24
2023-04-27T08:00:25.678Z,10.96
2023-04-27T08:02:56.065Z,10.79
2023-04-27T08:05:23.921Z,11.85
2023-04-27T08:07:54.538Z,11.66
2023-04-27T08:10:22.251Z,10.97
2023-04-27T08:12:49.398Z,11.92
2023-04-27T08:15:16.148Z,11.73
2023-04-27T08:17:43.952Z,11.58
2023-04-27T08:20:11.897Z,11.96
2023-04-27T08:22:42.208Z,11.92
2023-04-27T08:25:09.909Z,11.78
2023-04-27T08:27:40.598Z,12.33
2023-04-27T08:30:07.979Z,12.35
2023-04-27T08:32:35.014Z,12.14
2023-04-27T08:35:01.869Z,12.50
2023-04-27T08:37:28.604Z,12.34
2023-04-27T08:39:55.425Z,13.38
2023-04-27T08:42:22.193Z,12.45
2023-04-27T08:44:48.970Z,12.49
2023-04-27T08:47:15.953Z,13.34
2023-04-27T08:49:43.101Z,12.76
2023-04-27T08:52:16.561Z,13.08
2023-04-27T08:54:43.837Z,13.35
2023-04-27T08:57:11.980Z,13.47
2023-04-27T08:59:42.579Z,13.54
2023-04-27T09:02:20.673Z,13.44
2023-04-27T09:04:48.152Z,14.23
2023-04-27T09:07:17.443Z,13.67
2023-04-27T09:09:45.610Z,14.21
2023-04-27T09:12:19.412Z,14.08
2023-04-27T09:15:12.599Z,14.30
2023-04-27T09:17:39.451Z,14.41
2023-04-27T09:20:13.841Z,14.04
2023-04-27T09:22:48.082Z,15.84
2023-04-27T09:25:28.956Z,15.55
2023-04-27T09:27:56.922Z,14.30
2023-04-27T09:30:24.110Z,14.14
2023-04-27T09:33:04.564Z,15.01
2023-04-27T09:35:33.604Z,14.97
2023-04-27T09:38:01.289Z,15.40
2023-04-27T09:40:33.152Z,14.54
2023-04-27T09:43:04.265Z,15.67
2023-04-27T09:45:33.684Z,15.97
2023-04-27T09:48:01.566Z,15.54
2023-04-27T09:50:28.429Z,16.85
2023-04-27T09:52:55.317Z,14.64
2023-04-27T09:55:31.359Z,15.49
2023-04-27T09:58:36.174Z,16.84
2023-04-27T10:01:18.396Z,15.75
2023-04-27T10:04:29.672Z,16.02
2023-04-27T10:07:05.346Z,15.75
2023-04-27T10:09:38.231Z,15.75
2023-04-27T10:12:22.948Z,15.80
2023-04-27T10:14:54.143Z,17.37
2023-04-27T10:17:36.733Z,16.98
2023-04-27T10:20:07.772Z,16.86
2023-04-27T10:22:42.775Z,15.95
2023-04-27T10:25:23.030Z,16.16
2023-04-27T10:27:55.145Z,16.42
2023-04-27T10:30:24.009Z,17.18
2023-04-27T10:32:56.479Z,16.25
2023-04-27T10:36:01.696Z,17.01
2023-04-27T10:38:31.178Z,17.65
2023-04-27T10:41:03.552Z,17.61
2023-04-27T10:43:36.173Z,17.78
2023-04-27T10:46:16.061Z,17.90
2023-04-27T10:48:44.507Z,17.99
2023-04-27T10:51:16.215Z,16.75
2023-04-27T10:53:43.045Z,17.32
2023-04-27T10:56:10.602Z,17.89
2023-04-27T11:01:09.072Z,18.28
2023-04-27T11:03:36.758Z,18.24
2023-04-27T11:06:05.949Z,17.93
2023-04-27T11:08:36.973Z,17.49
2023-04-27T11:11:06.303Z,17.60
2023-04-27T11:13:33.842Z,17.88
2023-04-27T11:16:01.277Z,18.26
2023-04-27T11:18:33.896Z,18.35
2023-04-27T11:21:11.217Z,19.22
2023-04-27T11:23:39.220Z,18.83
2023-04-27T11:26:26.929Z,17.21
2023-04-27T11:29:10.417Z,17.89
2023-04-27T11:31:49.455Z,18.48
2023-04-27T11:34:22.761Z,18.10
2023-04-27T11:37:17.480Z,17.15
2023-04-27T11:39:46.291Z,16.49
2023-04-27T11:42:21.150Z,18.44
2023-04-27T11:44:58.821Z,18.70
2023-04-27T11:47:27.967Z,19.43
2023-04-27T11:49:57.419Z,19.13
2023-04-27T11:52:34.492Z,19.04
2023-04-27T11:55:02.401Z,18.05
2023-04-27T11:57:32.117Z,18.31
2023-04-27T12:00:01.774Z,19.68
2023-04-27T12:02:29.975Z,18.00
2023-04-27T12:04:58.973Z,17.74
2023-04-27T12:07:26.010Z,18.75
2023-04-27T12:09:52.757Z,18.77
2023-04-27T12:12:22.068Z,19.18
2023-04-27T12:14:49.671Z,19.23
2023-04-27T12:17:16.708Z,18.74
2023-04-27T12:19:43.592Z,19.58
2023-04-27T12:22:10.425Z,19.50
2023-04-27T12:24:37.687Z,19.16
2023-04-27T12:27:05.309Z,18.62
2023-04-27T12:29:32.438Z,18.39
2023-04-27T12:32:00.220Z,17.74
2023-04-27T12:34:28.606Z,18.36
2023-04-27T12:36:55.672Z,18.54
2023-04-27T12:39:27.121Z,17.39
2023-04-27T12:41:55.294Z,17.62
2023-04-27T12:44:22.431Z,17.95
2023-04-27T12:46:49.982Z,18.33
2023-04-27T12:49:17.970Z,17.76
2023-04-27T12:51:47.104Z,17.41
2023-04-27T12:54:14.633Z,17.18
2023-04-27T12:56:42.247Z,18.83
2023-04-27T12:59:09.910Z,17.87
2023-04-27T13:01:36.937Z,19.40
2023-04-27T13:04:06.217Z,18.46
2023-04-27T13:06:33.407Z,18.45
2023-04-27T13:09:00.294Z,19.04
2023-04-27T13:11:27.562Z,17.77
2023-04-27T13:13:55.360Z,17.71
2023-04-27T13:16:25.857Z,18.73
2023-04-27T13:18:53.873Z,18.90
2023-04-27T13:21:21.279Z,17.48
2023-04-27T13:23:48.503Z,18.47
2023-04-27T13:26:16.644Z,17.81
2023-04-27T13:28:43.622Z,18.86
2023-04-27T13:31:11.219Z,18.62
2023-04-27T13:33:42.947Z,19.01
2023-04-27T13:36:11.474Z,19.70
2023-04-27T13:38:38.595Z,19.10
2023-04-27T13:41:05.743Z,20.40
2023-04-27T13:43:32.822Z,18.63
2023-04-27T13:46:01.753Z,18.68
2023-04-27T13:48:29.248Z,18.26
2023-04-27T13:50:56.394Z,17.81
2023-04-27T13:53:27.190Z,18.12
2023-04-27T13:55:55.375Z,19.04
2023-04-27T13:58:25.603Z,19.76
2023-04-27T14:00:53.740Z,18.86
2023-04-27T14:03:21.935Z,19.74
2023-04-27T14:05:51.184Z,19.62
2023-04-27T14:08:18.322Z,19.49
2023-04-27T14:10:46.300Z,19.58
2023-04-27T14:13:13.542Z,20.38
2023-04-27T14:15:41.583Z,21.49
2023-04-27T14:18:09.775Z,20.48
2023-04-27T14:20:37.663Z,20.22
2023-04-27T14:23:06.399Z,20.93
2023-04-27T14:25:34.988Z,18.98
2023-04-27T14:28:03.174Z,19.56
2023-04-27T14:30:30.131Z,18.74
2023-04-27T14:32:57.312Z,19.69
2023-04-27T14:35:24.834Z,19.69
2023-04-27T14:37:52.921Z,20.27
2023-04-27T14:40:20.058Z,21.67
2023-04-27T14:42:47.391Z,20.97
2023-04-27T14:45:16.108Z,20.15
2023-04-27T14:47:43.017Z,20.73
2023-04-27T14:50:11.851Z,20.31
2023-04-27T14:52:39.211Z,19.80
2023-04-27T14:55:07.250Z,19.53
2023-04-27T14:57:34.290Z,19.07
2023-04-27T15:00:01.299Z,20.67
2023-04-27T15:02:28.167Z,18.22
2023-04-27T15:04:55.076Z,17.52
2023-04-27T15:07:22.062Z,18.54
2023-04-27T15:09:48.888Z,18.91
2023-04-27T15:12:15.606Z,18.89
2023-04-27T15:14:42.426Z,17.68
2023-04-27T15:17:09.327Z,17.87
2023-04-27T15:19:36.285Z,17.24
2023-04-27T15:22:03.140Z,17.60
2023-04-27T15:24:30.055Z,17.15
2023-04-27T15:26:56.844Z,17.83
2023-04-27T15:29:23.860Z,17.61
2023-04-27T15:31:51.229Z,18.06
2023-04-27T15:34:18.317Z,18.16
2023-04-27T15:36:45.140Z,17.91
2023-04-27T15:39:12.048Z,17.85
2023-04-27T15:41:39.018Z,17.55
2023-04-27T15:44:06.738Z,16.94
2023-04-27T15:46:33.946Z,17.27
2023-04-27T15:49:00.759Z,17.51
2023-04-27T15:51:27.538Z,16.96
2023-04-27T15:53:54.305Z,17.67
2023-04-27T15:56:22.008Z,17.54
2023-04-27T15:58:48.781Z,17.64
2023-04-27T16:01:15.804Z,17.46
2023-04-27T16:03:42.853Z,17.79
2023-04-27T16:06:09.822Z,17.33
2023-04-27T16:08:36.606Z,17.68
2023-04-27T16:11:03.425Z,17.20
2023-04-27T16:13:30.162Z,17.68
2023-04-27T16:15:57.142Z,17.42
2023-04-27T16:18:23.956Z,17.99
2023-04-27T16:20:50.746Z,17.38
2023-04-27T16:23:20.287Z,17.87
2023-04-27T16:25:47.078Z,18.09
2023-04-27T16:28:13.990Z,18.86
2023-04-27T16:30:40.795Z,19.95
2023-04-27T16:33:07.663Z,18.34
2023-04-27T16:35:35.144Z,17.66
2023-04-27T16:38:01.967Z,17.47
2023-04-27T16:40:28.805Z,17.43
2023-04-27T16:42:55.814Z,17.22
2023-04-27T16:45:22.950Z,17.53
2023-04-27T16:47:50.189Z,17.57
2023-04-27T16:50:17.460Z,18.77
2023-04-27T16:52:44.782Z,19.79
2023-04-27T16:55:11.864Z,19.34
2023-04-27T16:57:38.645Z,18.23
2023-04-27T17:00:06.877Z,17.45
2023-04-27T17:02:34.024Z,17.13
2023-04-27T17:05:01.003Z,17.14
2023-04-27T17:07:32.988Z,17.68
2023-04-27T17:10:00.296Z,17.19
2023-04-27T17:12:28.032Z,17.09
2023-04-27T17:14:55.093Z,17.75
2023-04-27T17:17:22.096Z,17.87
2023-04-27T17:19:48.899Z,18.31
2023-04-27T17:22:16.021Z,18.52
2023-04-27T17:24:42.763Z,18.02
2023-04-27T17:27:09.789Z,17.50
2023-04-27T17:29:37.517Z,18.78
2023-04-27T17:32:05.284Z,19.11
2023-04-27T17:34:32.240Z,18.48
2023-04-27T17:36:58.998Z,17.63
2023-04-27T17:39:25.959Z,18.43
2023-04-27T17:41:52.784Z,16.94
2023-04-27T17:44:19.499Z,16.32
2023-04-27T17:46:47.998Z,16.43
2023-04-27T17:49:15.967Z,16.14
2023-04-27T17:51:46.992Z,16.01
2023-04-27T17:54:13.815Z,16.13
2023-04-27T17:56:40.706Z,15.83
2023-04-27T17:59:07.996Z,15.76
2023-04-27T18:01:34.954Z,15.67
2023-04-27T18:04:04.254Z,15.54
2023-04-27T18:06:32.333Z,15.54
2023-04-27T18:08:59.206Z,15.34
2023-04-27T18:11:26.264Z,15.23
2023-04-27T18:13:54.875Z,15.09
2023-04-27T18:16:21.884Z,15.03
2023-04-27T18:18:48.936Z,14.97
2023-04-27T18:21:15.796Z,14.82
2023-04-27T18:23:42.941Z,14.67
2023-04-27T18:26:11.530Z,14.66
2023-04-27T18:28:40.386Z,14.69
2023-04-27T18:31:17.275Z,14.61
2023-04-27T18:33:45.086Z,14.31
2023-04-27T18:36:11.890Z,14.08
2023-04-27T18:38:38.937Z,14.02
2023-04-27T18:41:05.920Z,14.07
2023-04-27T18:43:35.958Z,14.13
2023-04-27T18:46:03.718Z,13.95
2023-04-27T18:48:30.555Z,13.81
2023-04-27T18:50:57.448Z,13.76
2023-04-27T18:53:24.311Z,13.52
2023-04-27T18:55:51.222Z,13.30
2023-04-27T18:58:17.947Z,13.30
2023-04-27T19:00:44.683Z,13.38
2023-04-27T19:03:11.695Z,13.32
2023-04-27T19:05:43.277Z,13.28
2023-04-27T19:08:10.598Z,13.33
2023-04-27T19:10:37.696Z,13.36
2023-04-27T19:13:04.531Z,13.32
2023-04-27T19:15:31.307Z,13.29
2023-04-27T19:18:07.011Z,13.18
2023-04-27T19:20:37.797Z,13.10
2023-04-27T19:23:05.630Z,13.16
2023-04-27T19:25:32.475Z,13.05
2023-04-27T19:27:59.373Z,13.00
2023-04-27T19:30:29.586Z,13.02
2023-04-27T19:32:56.510Z,13.02
2023-04-27T19:35:24.128Z,12.85
2023-04-27T19:37:51.521Z,12.87
2023-04-27T19:40:18.682Z,12.80
2023-04-27T19:42:45.802Z,12.69
2023-04-27T19:45:12.781Z,12.67
2023-04-27T19:47:39.707Z,12.54
2023-04-27T19:50:07.273Z,12.50
2023-04-27T19:52:34.192Z,12.45
2023-04-27T19:55:01.192Z,12.38
2023-04-27T19:57:31.152Z,12.18
2023-04-27T19:59:58.094Z,12.12
2023-04-27T20:02:25.197Z,12.05
2023-04-27T20:04:52.153Z,11.99
2023-04-27T20:07:19.344Z,11.98
2023-04-27T20:09:46.226Z,11.95
2023-04-27T20:12:24.046Z,11.83
2023-04-27T20:14:59.910Z,11.84
2023-04-27T20:17:27.591Z,11.86
2023-04-27T20:19:56.572Z,11.75
2023-04-27T20:22:23.620Z,11.76
2023-04-27T20:24:51.072Z,11.69
2023-04-27T20:27:17.876Z,11.51
2023-04-27T20:29:46.773Z,11.49
2023-04-27T20:32:13.678Z,11.44
2023-04-27T20:34:40.654Z,11.43
2023-04-27T20:37:07.740Z,11.42
2023-04-27T20:39:35.289Z,11.33
2023-04-27T20:42:02.356Z,11.36
2023-04-27T20:44:29.207Z,11.30
2023-04-27T20:46:56.280Z,11.25
2023-04-27T20:49:31.868Z,11.24
2023-04-27T20:52:01.876Z,11.25
2023-04-27T20:54:31.198Z,11.15
2023-04-27T20:56:57.993Z,11.21
2023-04-27T20:59:24.778Z,11.20
2023-04-27T21:01:51.956Z,11.21
2023-04-27T21:04:19.516Z,11.25
2023-04-27T21:06:46.673Z,11.19
2023-04-27T21:09:13.532Z,11.15
2023-04-27T21:11:40.370Z,11.26
2023-04-27T21:14:08.085Z,11.29
2023-04-27T21:16:35.078Z,11.26
2023-04-27T21:19:05.459Z,11.21
2023-04-27T21:21:32.424Z,11.16
2023-04-27T21:24:07.294Z,11.22
2023-04-27T21:26:46.262Z,11.18
2023-04-27T21:29:13.175Z,11.20
2023-04-27T21:31:40.130Z,11.11
2023-04-27T21:34:07.043Z,11.05
2023-04-27T21:36:34.165Z,11.10
2023-04-27T21:39:01.163Z,11.06
2023-04-27T21:41:28.124Z,11.14
2023-04-27T21:43:54.985Z,11.07
2023-04-27T21:46:23.489Z,11.06
2023-04-27T21:48:50.233Z,10.90
2023-04-27T21:51:17.090Z,10.78
2023-04-27T21:53:43.892Z,10.67
2023-04-27T21:56:10.671Z,10.58
2023-04-27T21:58:37.490Z,10.47
2023-04-27T22:01:04.509Z,10.39
2023-04-27T22:03:31.596Z,10.34
2023-04-27T22:05:59.737Z,10.42
2023-04-27T22:08:26.930Z,10.41
2023-04-27T22:10:53.772Z,10.35
2023-04-27T22:13:20.587Z,10.33
2023-04-27T22:15:48.323Z,10.39
2023-04-27T22:18:15.923Z,10.43
2023-04-27T22:20:43.299Z,10.45
2023-04-27T22:23:10.379Z,10.47
2023-04-27T22:25:37.419Z,10.39
2023-04-27T22:28:04.470Z,10.36
2023-04-27T22:30:31.349Z,10.29
2023-04-27T22:32:58.405Z,10.37
2023-04-27T22:35:27.700Z,10.44
2023-04-27T22:38:01.698Z,10.58
2023-04-27T22:40:28.664Z,10.63
2023-04-27T22:42:56.263Z,10.48
2023-04-27T22:45:24.018Z,10.19
2023-04-27T22:47:51.519Z,10.30
2023-04-27T22:50:18.536Z,10.20
2023-04-27T22:52:45.886Z,10.32
2023-04-27T22:55:13.279Z,10.21
2023-04-27T22:57:41.978Z,10.28
2023-04-27T23:00:11.748Z,10.28
2023-04-27T23:02:40.069Z,10.18
2023-04-27T23:05:07.646Z,10.21
2023-04-27T23:07:35.076Z,10.10
2023-04-27T23:10:03.320Z,10.15
2023-04-27T23:12:31.686Z,10.14
2023-04-27T23:15:01.629Z,10.24
2023-04-27T23:17:31.566Z,10.20
2023-04-27T23:20:04.029Z,10.10
2023-04-27T23:22:30.976Z,10.16
2023-04-27T23:24:57.725Z,10.04
2023-04-27T23:27:25.219Z,10.10
2023-04-27T23:29:52.928Z,10.15
2023-04-27T23:32:19.980Z,10.15
2023-04-27T23:34:46.888Z,10.14
2023-04-27T23:37:13.739Z,10.13
2023-04-27T23:39:40.506Z,10.09
2023-04-27T23:42:07.278Z,10.06
2023-04-27T23:44:34.062Z,10.03
2023-04-27T23:47:00.920Z,9.96
2023-04-27T23:49:28.352Z,9.90
2023-04-27T23:51:55.129Z,9.92
2023-04-27T23:54:21.955Z,9.95
2023-04-27T23:56:50.631Z,9.93
2023-04-27T23:59:17.851Z,9.99
